Time;durP1;ratioP1;P1;durP2;ratioP2;P2;SDS_P1;SDS_P2;PMS_P1;PMS_P2;Temp;Humidity;BMP_temperature;BMP_pressure;BME280_temperature;BME280_humidity;BME280_pressure;Samples;Min_cycle;Max_cycle;Signal;HPM_P1;HPM_P2
2021/07/23 00:39:50;;;;;;;13.88;10.27;;;17.50;96.80;;;;;;4863457;29;20044;-91
2021/07/23 00:42:50;;;;;;;15.10;9.43;;;17.40;96.80;;;;;;4860627;29;20041;-92
2021/07/23 00:45:56;;;;;;;;;;;;;;;;;;;;;
2021/07/23 00:55:42;;;;;;;15.27;9.82;;;17.40;97.00;;;;;;4937236;29;20031;-92
2021/07/23 00:58:24;;;;;;;17.67;10.60;;;17.40;97.00;;;;;;4932971;29;20396;-94
2021/07/23 01:00:54;;;;;;;15.70;10.73;;;17.40;97.10;;;;;;4945722;28;20263;-91
2021/07/23 01:03:22;;;;;;;15.50;9.85;;;17.30;97.10;;;;;;4961061;29;20039;-92
2021/07/23 01:06:13;;;;;;;;;;;;;;;;;;;;;
2021/07/23 01:12:33;;;;;;;22.60;11.82;;;17.30;97.30;;;;;;4960051;29;20075;-92
2021/07/23 01:25:41;;;;;;;;;;;;;;;;;;;;;
2021/07/23 02:02:10;;;;;;;14.52;9.70;;;17.30;98.10;;;;;;5041812;28;20035;-91
2021/07/23 02:05:18;;;;;;;16.92;11.27;;;17.30;98.00;;;;;;5040425;28;20346;-92
2021/07/23 02:07:53;;;;;;;18.27;11.05;;;17.40;97.80;;;;;;5050845;28;20033;-91
2021/07/23 02:10:24;;;;;;;19.00;10.60;;;17.40;97.80;;;;;;5055492;28;20033;-92
2021/07/23 02:13:04;;;;;;;19.17;9.23;;;17.40;97.70;;;;;;5059843;28;20042;-95
2021/07/23 02:15:32;;;;;;;16.27;10.45;;;17.50;97.60;;;;;;5064306;28;20037;-91
2021/07/23 02:17:58;;;;;;;19.48;10.98;;;17.50;97.50;;;;;;5060512;28;20061;-93
2021/07/23 02:20:31;;;;;;;20.90;11.95;;;17.50;97.50;;;;;;5058480;28;20040;-91
2021/07/23 02:23:18;;;;;;;16.45;11.25;;;17.50;97.40;;;;;;5038994;28;20515;-90
2021/07/23 02:25:53;;;;;;;16.70;10.52;;;17.50;97.30;;;;;;5052148;28;20112;-91
2021/07/23 02:28:27;;;;;;;16.52;10.85;;;17.50;97.30;;;;;;5038075;28;20395;-91
2021/07/23 02:34:57;;;;;;;17.08;10.80;;;17.50;97.20;;;;;;5024401;28;20098;-93
2021/07/23 02:38:02;;;;;;;18.38;11.10;;;17.50;97.10;;;;;;5020736;28;20048;-92
2021/07/23 02:40:49;;;;;;;21.40;11.93;;;17.40;97.00;;;;;;5039254;28;20434;-93
2021/07/23 02:51:05;;;;;;;18.08;10.57;;;17.30;97.30;;;;;;4978348;28;20097;-93
2021/07/23 02:57:13;;;;;;;18.48;11.43;;;17.20;97.40;;;;;;4984143;28;20091;-92
2021/07/23 03:03:51;;;;;;;16.58;11.20;;;17.20;97.50;;;;;;5009322;28;20096;-93
2021/07/23 03:06:46;;;;;;;20.05;12.43;;;17.10;97.60;;;;;;5033680;28;20120;-92
2021/07/23 03:09:27;;;;;;;15.98;10.35;;;17.10;97.70;;;;;;5036241;28;20037;-93
2021/07/23 03:15:45;;;;;;;17.10;10.88;;;17.10;97.70;;;;;;5025470;28;20025;-92
2021/07/23 03:18:37;;;;;;;;;;;;;;;;;;;;;
2021/07/23 03:25:20;;;;;;;18.10;10.73;;;17.00;97.90;;;;;;5065679;28;20095;-92
2021/07/23 03:28:06;;;;;;;15.68;10.77;;;17.00;97.90;;;;;;5034044;28;20076;-92
2021/07/23 03:30:39;;;;;;;19.33;11.13;;;17.00;97.80;;;;;;5047584;28;20068;-93
2021/07/23 03:33:26;;;;;;;18.10;11.77;;;17.00;97.80;;;;;;5068232;28;20278;-94
2021/07/23 03:36:35;;;;;;;15.95;10.70;;;17.10;97.80;;;;;;5076107;28;20037;-93
2021/07/23 03:39:29;;;;;;;16.55;10.32;;;17.10;97.70;;;;;;5054273;28;20043;-92
2021/07/23 03:42:29;;;;;;;20.33;11.23;;;17.10;97.80;;;;;;5051472;28;20044;-93
2021/07/23 03:45:03;;;;;;;17.15;9.98;;;17.10;97.50;;;;;;5048822;28;20037;-93
2021/07/23 03:53:31;;;;;;;18.92;12.25;;;17.10;97.30;;;;;;5052043;28;20409;-92
2021/07/23 03:56:12;;;;;;;17.65;12.20;;;17.20;97.40;;;;;;5053085;28;20056;-93
2021/07/23 03:59:01;;;;;;;28.38;12.05;;;17.20;97.40;;;;;;5042669;28;20064;-92
2021/07/23 04:01:29;;;;;;;16.20;11.27;;;17.20;97.40;;;;;;5049541;28;20123;-92
2021/07/23 04:04:03;;;;;;;18.20;11.10;;;17.30;97.50;;;;;;5042719;28;20041;-92
2021/07/23 04:06:44;;;;;;;18.00;10.90;;;17.30;97.50;;;;;;5037435;28;20053;-91
2021/07/23 04:09:23;;;;;;;17.75;11.18;;;17.30;97.50;;;;;;5041987;28;20037;-91
2021/07/23 04:12:00;;;;;;;17.67;11.32;;;17.40;97.60;;;;;;5057684;28;20022;-91
2021/07/23 04:14:39;;;;;;;20.52;11.73;;;17.50;97.60;;;;;;5046731;28;20442;-92
2021/07/23 04:17:11;;;;;;;18.48;11.77;;;17.50;97.40;;;;;;5041397;28;20072;-91
2021/07/23 04:20:08;;;;;;;16.95;11.23;;;17.60;97.30;;;;;;5040561;28;20115;-91
2021/07/23 04:22:34;;;;;;;17.30;11.52;;;17.60;97.30;;;;;;5040337;28;20072;-92
2021/07/23 04:25:30;;;;;;;16.10;11.48;;;17.70;97.30;;;;;;5039235;28;20043;-92
2021/07/23 04:32:16;;;;;;;17.70;11.13;;;17.90;97.10;;;;;;5044465;28;20339;-91
2021/07/23 04:34:55;;;;;;;19.65;12.05;;;17.90;96.90;;;;;;5063308;28;20426;-91
2021/07/23 04:37:29;;;;;;;20.92;11.68;;;17.90;96.70;;;;;;5039069;28;20040;-93
2021/07/23 05:32:47;;;;;;;18.02;10.95;;;19.20;94.10;;;;;;4933395;29;20114;-92
2021/07/23 05:42:03;;;;;;;13.70;9.52;;;19.40;93.80;;;;;;4811842;29;20080;-92
2021/07/23 05:44:34;;;;;;;16.55;10.65;;;19.50;94.10;;;;;;4884195;29;20045;-88
2021/07/23 05:47:00;;;;;;;18.10;11.10;;;19.60;93.90;;;;;;4931401;29;20032;-89
2021/07/23 05:49:26;;;;;;;18.05;11.63;;;19.80;93.80;;;;;;4982241;28;20339;-90
2021/07/23 05:51:52;;;;;;;18.15;11.88;;;19.80;94.10;;;;;;5020949;28;20037;-89
2021/07/23 05:54:31;;;;;;;15.35;10.00;;;19.90;94.20;;;;;;5021044;28;20273;-90
2021/07/23 05:56:57;;;;;;;17.58;12.00;;;20.00;94.00;;;;;;4998129;28;20034;-89
2021/07/23 05:59:23;;;;;;;20.25;11.70;;;20.10;93.90;;;;;;4982134;28;20034;-89
2021/07/23 06:01:48;;;;;;;18.70;10.88;;;20.20;93.90;;;;;;5002618;28;20060;-89
2021/07/23 06:04:14;;;;;;;17.45;11.18;;;20.20;93.90;;;;;;5012805;28;20038;-88
2021/07/23 06:06:40;;;;;;;16.35;10.65;;;20.30;93.70;;;;;;5002190;28;20038;-90
2021/07/23 06:09:06;;;;;;;19.80;11.32;;;20.50;93.50;;;;;;5020909;28;20033;-89
2021/07/23 06:11:33;;;;;;;21.98;12.10;;;20.60;93.60;;;;;;5019126;28;20092;-90
2021/07/23 06:13:59;;;;;;;17.60;10.90;;;20.60;93.60;;;;;;5030312;28;20029;-89
2021/07/23 06:16:25;;;;;;;23.33;10.93;;;20.70;93.40;;;;;;5037408;28;20080;-88
2021/07/23 06:18:50;;;;;;;18.88;11.32;;;20.80;93.10;;;;;;5034679;28;20037;-90
2021/07/23 06:21:16;;;;;;;18.40;11.85;;;20.90;93.10;;;;;;5026578;28;20041;-89
2021/07/23 06:23:45;;;;;;;21.00;10.55;;;20.90;93.50;;;;;;5018816;28;20120;-90
2021/07/23 06:26:12;;;;;;;21.88;12.90;;;20.90;93.10;;;;;;5020693;28;20116;-90
2021/07/23 06:28:38;;;;;;;18.02;11.70;;;20.90;93.50;;;;;;5032955;28;20033;-90
2021/07/23 06:31:04;;;;;;;18.38;11.73;;;20.90;93.70;;;;;;5013181;28;20128;-89
2021/07/23 06:33:30;;;;;;;24.85;12.45;;;21.00;93.50;;;;;;5004250;28;20057;-91
2021/07/23 06:36:00;;;;;;;18.13;11.75;;;21.00;93.50;;;;;;5000510;28;20274;-85
2021/07/23 06:38:25;;;;;;;19.77;12.52;;;21.10;93.60;;;;;;5015892;28;20038;-84
2021/07/23 06:40:53;;;;;;;18.73;11.45;;;21.10;94.00;;;;;;5033396;28;20029;-83
2021/07/23 06:43:19;;;;;;;19.30;11.70;;;21.10;93.60;;;;;;5033633;28;20041;-83
2021/07/23 06:45:53;;;;;;;16.48;11.60;;;21.20;93.60;;;;;;5035728;28;20072;-83
2021/07/23 06:48:18;;;;;;;17.77;11.05;;;21.20;93.70;;;;;;5019838;28;20683;-84
2021/07/23 06:50:44;;;;;;;19.85;12.10;;;21.20;93.50;;;;;;5048704;28;20133;-87
2021/07/23 06:53:09;;;;;;;19.40;10.82;;;21.20;93.40;;;;;;5017871;28;20045;-88
2021/07/23 06:55:35;;;;;;;21.00;11.13;;;21.20;93.60;;;;;;5002635;28;20656;-87
2021/07/23 06:58:00;;;;;;;17.85;10.45;;;21.20;93.50;;;;;;5029018;28;20352;-89
2021/07/23 07:00:26;;;;;;;21.17;10.57;;;21.10;93.50;;;;;;5003858;28;20061;-87
2021/07/23 07:02:51;;;;;;;19.13;11.38;;;21.10;93.40;;;;;;5030167;28;20041;-88
2021/07/23 07:05:19;;;;;;;19.30;11.55;;;21.10;93.10;;;;;;5021188;28;20046;-87
2021/07/23 07:07:44;;;;;;;17.73;11.10;;;21.20;93.40;;;;;;5027902;28;20380;-88
2021/07/23 07:10:10;;;;;;;16.45;10.57;;;21.10;93.00;;;;;;5016481;28;20041;-88
2021/07/23 07:12:36;;;;;;;19.95;12.55;;;21.20;93.00;;;;;;5022022;28;20041;-87
2021/07/23 07:15:02;;;;;;;18.63;10.20;;;21.20;92.90;;;;;;5010770;28;20095;-89
2021/07/23 07:17:29;;;;;;;15.15;10.45;;;21.30;92.60;;;;;;5002193;28;20053;-87
2021/07/23 07:19:57;;;;;;;15.55;10.85;;;21.40;92.60;;;;;;5001824;28;20052;-87
2021/07/23 07:22:24;;;;;;;19.27;10.60;;;21.40;92.80;;;;;;5002423;28;20038;-87
2021/07/23 07:24:49;;;;;;;17.42;10.63;;;21.50;92.30;;;;;;5012765;28;20042;-87
2021/07/23 07:27:15;;;;;;;16.92;11.07;;;21.50;92.50;;;;;;5010446;28;20056;-88
2021/07/23 07:29:40;;;;;;;17.08;11.05;;;21.60;92.50;;;;;;5001969;28;20278;-87
2021/07/23 07:32:08;;;;;;;14.25;10.43;;;21.70;92.00;;;;;;5001818;28;20037;-87
2021/07/23 07:34:34;;;;;;;14.40;9.45;;;21.70;91.90;;;;;;5035663;28;20035;-87
2021/07/23 07:37:01;;;;;;;15.90;10.52;;;21.80;91.60;;;;;;5053588;28;20091;-87
2021/07/23 07:39:26;;;;;;;22.95;10.88;;;21.80;91.90;;;;;;5037332;28;20041;-87
2021/07/23 07:41:52;;;;;;;21.90;11.65;;;21.80;91.50;;;;;;5054360;28;20040;-87
2021/07/23 07:44:17;;;;;;;16.25;10.35;;;21.90;91.50;;;;;;5055106;28;20128;-87
2021/07/23 07:46:43;;;;;;;13.77;9.48;;;21.90;91.40;;;;;;5057767;28;20155;-87
2021/07/23 07:49:08;;;;;;;13.23;9.45;;;22.00;91.50;;;;;;5039180;28;20282;-87
2021/07/23 07:51:34;;;;;;;17.60;10.02;;;22.10;91.60;;;;;;5036881;28;20052;-89
2021/07/23 07:54:02;;;;;;;21.05;10.75;;;22.20;91.90;;;;;;5035899;28;20037;-88
2021/07/23 07:56:29;;;;;;;15.43;10.25;;;22.30;91.50;;;;;;5035104;28;20037;-86
2021/07/23 07:58:54;;;;;;;17.77;10.70;;;22.50;90.70;;;;;;5024068;28;20470;-86
2021/07/23 08:01:20;;;;;;;15.15;10.05;;;22.60;90.70;;;;;;5019809;28;20033;-86
2021/07/23 08:03:45;;;;;;;17.02;10.30;;;22.60;90.80;;;;;;5037685;28;20082;-88
2021/07/23 08:06:19;;;;;;;16.15;9.90;;;22.70;89.90;;;;;;5033185;28;20307;-88
2021/07/23 08:08:45;;;;;;;15.13;9.98;;;22.80;90.10;;;;;;5035816;28;20069;-88
2021/07/23 08:11:22;;;;;;;15.65;9.70;;;22.80;90.70;;;;;;5037750;28;20308;-91
2021/07/23 08:13:47;;;;;;;14.85;9.90;;;22.90;90.40;;;;;;5037842;28;20057;-88
2021/07/23 08:16:13;;;;;;;16.08;10.38;;;23.00;89.00;;;;;;5037278;28;20037;-89
2021/07/23 08:18:39;;;;;;;16.42;10.80;;;23.00;90.10;;;;;;5040217;28;20052;-90
2021/07/23 08:21:06;;;;;;;14.98;10.02;;;23.10;88.80;;;;;;5040377;28;20350;-88
2021/07/23 08:23:33;;;;;;;17.60;10.05;;;23.20;88.60;;;;;;5041100;28;20037;-88
2021/07/23 08:25:59;;;;;;;16.75;10.63;;;23.20;89.70;;;;;;5039282;28;20128;-87
2021/07/23 08:28:26;;;;;;;14.30;9.60;;;23.30;89.10;;;;;;5038606;28;20075;-87
2021/07/23 08:30:52;;;;;;;17.80;10.63;;;23.40;88.90;;;;;;5037085;28;20389;-88
2021/07/23 08:33:21;;;;;;;16.65;10.18;;;23.50;88.70;;;;;;5039917;28;20048;-89
2021/07/23 08:35:47;;;;;;;16.85;10.35;;;23.60;88.50;;;;;;5051507;28;20052;-88
2021/07/23 08:38:12;;;;;;;15.93;10.35;;;23.70;87.10;;;;;;5043339;28;20033;-88
2021/07/23 08:40:38;;;;;;;16.90;10.93;;;23.80;87.20;;;;;;5035966;28;20052;-88
2021/07/23 08:43:05;;;;;;;18.63;11.25;;;23.90;88.20;;;;;;5054345;28;20040;-87
2021/07/23 08:45:30;;;;;;;17.63;10.90;;;24.00;85.90;;;;;;5039113;28;20034;-87
2021/07/23 08:47:56;;;;;;;16.45;9.85;;;24.00;86.30;;;;;;5032339;28;20038;-87
2021/07/23 08:50:23;;;;;;;15.18;10.35;;;24.10;86.90;;;;;;5049889;28;20068;-86
2021/07/23 08:52:59;;;;;;;24.58;11.27;;;24.30;84.80;;;;;;5055400;28;20040;-90
2021/07/23 08:55:32;;;;;;;18.63;11.55;;;24.30;84.90;;;;;;5049272;28;20033;-90
2021/07/23 08:57:58;;;;;;;15.02;9.63;;;24.50;83.50;;;;;;5043280;28;20060;-91
2021/07/23 09:00:25;;;;;;;14.30;9.88;;;24.60;84.40;;;;;;5047984;28;20063;-91
2021/07/23 09:02:59;;;;;;;16.63;10.93;;;24.60;83.50;;;;;;5040870;28;20124;-90
2021/07/23 09:05:44;;;;;;;15.75;10.57;;;24.60;82.90;;;;;;5042322;28;20038;-90
2021/07/23 09:08:15;;;;;;;22.25;10.70;;;24.70;82.90;;;;;;5049472;28;20021;-91
2021/07/23 09:10:41;;;;;;;16.90;9.93;;;24.80;82.10;;;;;;5048171;28;20347;-90
2021/07/23 09:13:20;;;;;;;18.88;9.93;;;24.90;83.10;;;;;;5039535;28;20053;-92
2021/07/23 09:16:25;;;;;;;17.58;10.85;;;24.90;81.10;;;;;;5047321;28;20030;-90
2021/07/23 09:19:08;;;;;;;13.93;9.15;;;25.00;81.10;;;;;;5065719;28;20061;-91
2021/07/23 09:21:39;;;;;;;16.73;11.35;;;25.10;80.00;;;;;;5051179;28;20071;-91
2021/07/23 09:24:06;;;;;;;15.00;11.20;;;25.10;82.10;;;;;;5041085;28;20108;-90
2021/07/23 09:26:42;;;;;;;17.63;9.70;;;25.30;81.60;;;;;;5030314;28;20052;-92
2021/07/23 09:29:08;;;;;;;14.48;9.98;;;25.40;79.80;;;;;;5043863;28;20076;-92
2021/07/23 09:31:35;;;;;;;17.75;9.80;;;25.50;82.60;;;;;;5039803;28;20041;-90
2021/07/23 09:34:03;;;;;;;15.27;10.00;;;25.70;82.90;;;;;;5037956;28;20116;-90
2021/07/23 09:36:29;;;;;;;14.68;9.07;;;25.90;81.00;;;;;;5038186;28;20103;-92
2021/07/23 09:39:10;;;;;;;16.88;9.60;;;26.00;77.30;;;;;;5036273;28;20637;-90
2021/07/23 09:41:36;;;;;;;14.57;9.02;;;26.10;78.00;;;;;;5038687;28;20397;-88
2021/07/23 09:44:02;;;;;;;17.25;9.93;;;26.20;78.90;;;;;;5038193;28;20048;-90
2021/07/23 09:46:31;;;;;;;14.00;9.68;;;26.20;79.20;;;;;;5035671;28;20064;-89
2021/07/23 09:49:00;;;;;;;15.18;10.25;;;26.30;78.40;;;;;;5037025;28;20029;-89
2021/07/23 09:51:36;;;;;;;16.27;9.82;;;26.40;77.90;;;;;;5037443;28;20051;-90
2021/07/23 09:54:01;;;;;;;17.70;10.18;;;26.50;78.00;;;;;;5033159;28;20064;-89
2021/07/23 09:56:27;;;;;;;19.77;11.32;;;26.40;76.90;;;;;;5025233;28;20072;-90
2021/07/23 09:58:56;;;;;;;15.45;9.80;;;26.40;76.30;;;;;;5023944;28;20034;-90
2021/07/23 10:01:35;;;;;;;13.98;9.38;;;26.30;77.60;;;;;;5038007;28;20041;-92
2021/07/23 10:04:07;;;;;;;14.45;9.98;;;26.40;77.20;;;;;;5037375;28;20530;-90
2021/07/23 10:06:57;;;;;;;14.45;8.90;;;26.40;75.50;;;;;;5040942;28;20045;-88
2021/07/23 10:09:27;;;;;;;12.85;9.07;;;26.50;74.80;;;;;;5040730;28;20167;-88
2021/07/23 10:11:57;;;;;;;11.65;8.38;;;26.70;74.70;;;;;;5040894;28;20159;-90
2021/07/23 10:14:26;;;;;;;12.75;8.45;;;26.70;74.70;;;;;;5050627;28;20049;-89
2021/07/23 10:16:54;;;;;;;15.52;9.13;;;26.80;74.40;;;;;;5036468;28;20033;-90
2021/07/23 10:19:24;;;;;;;12.38;8.90;;;26.90;71.80;;;;;;5041278;28;20356;-89
2021/07/23 10:21:58;;;;;;;13.55;9.30;;;27.00;75.00;;;;;;5049232;28;20468;-89
2021/07/23 10:24:31;;;;;;;15.43;8.90;;;27.20;71.70;;;;;;5041936;28;20041;-90
2021/07/23 10:27:25;;;;;;;14.98;9.35;;;27.30;72.50;;;;;;5041387;28;20037;-90
2021/07/23 10:29:53;;;;;;;14.02;8.40;;;27.40;74.00;;;;;;5041536;28;20091;-89
2021/07/23 10:32:27;;;;;;;18.00;7.72;;;27.60;70.40;;;;;;5040780;28;20057;-90
2021/07/23 10:35:19;;;;;;;12.93;8.32;;;27.60;72.20;;;;;;5057773;28;20048;-90
2021/07/23 10:41:17;;;;;;;12.88;8.10;;;27.80;69.50;;;;;;5041624;28;20051;-89
2021/07/23 10:43:42;;;;;;;14.00;8.10;;;27.90;71.20;;;;;;5057154;28;20211;-89
2021/07/23 10:46:30;;;;;;;11.90;7.30;;;27.90;69.70;;;;;;5041073;28;20095;-88
2021/07/23 10:52:36;;;;;;;12.70;8.32;;;28.20;68.70;;;;;;5251666;22;20388;-91
2021/07/23 10:55:27;;;;;;;10.25;7.35;;;28.20;66.70;;;;;;5058664;28;20352;-90
2021/07/23 11:01:50;;;;;;;10.10;6.82;;;28.40;66.40;;;;;;5042022;28;20033;-90
2021/07/23 11:04:25;;;;;;;9.55;6.85;;;28.50;63.20;;;;;;5041326;28;20095;-91
2021/07/23 11:09:50;;;;;;;10.88;7.15;;;28.50;64.10;;;;;;5041348;28;20282;-89
2021/07/23 11:12:20;;;;;;;9.55;6.47;;;28.60;66.10;;;;;;5057989;28;20072;-89
2021/07/23 11:15:21;;;;;;;12.82;7.72;;;28.60;67.00;;;;;;5057956;28;20034;-92
2021/07/23 11:17:57;;;;;;;10.50;6.75;;;28.50;63.90;;;;;;5041091;28;20076;-90
2021/07/23 11:20:34;;;;;;;10.38;6.97;;;28.60;66.70;;;;;;5057368;28;20352;-89
2021/07/23 11:23:00;;;;;;;11.85;7.47;;;28.70;66.10;;;;;;5062500;28;20034;-89
2021/07/23 11:25:28;;;;;;;10.48;7.25;;;28.80;64.90;;;;;;5067068;28;20060;-89
2021/07/23 11:28:05;;;;;;;9.02;6.60;;;29.00;64.60;;;;;;5057576;28;20045;-90
2021/07/23 11:30:46;;;;;;;9.43;6.72;;;29.20;63.30;;;;;;5058019;28;20038;-90
2021/07/23 11:33:12;;;;;;;8.17;6.37;;;29.20;61.60;;;;;;5057784;28;20033;-90
2021/07/23 11:35:45;;;;;;;8.40;6.10;;;29.20;62.10;;;;;;5057707;28;20410;-90
2021/07/23 11:38:18;;;;;;;10.02;6.78;;;29.20;60.20;;;;;;5057853;28;20037;-91
2021/07/23 11:41:15;;;;;;;10.30;5.50;;;29.10;60.00;;;;;;5057576;28;20037;-92
2021/07/23 11:43:41;;;;;;;11.40;6.35;;;29.10;61.40;;;;;;5057541;28;20045;-90
2021/07/23 11:46:12;;;;;;;9.05;6.20;;;29.20;59.00;;;;;;5057289;28;20037;-90
2021/07/23 11:48:39;;;;;;;11.05;6.00;;;29.20;59.30;;;;;;5057130;28;20042;-89
2021/07/23 11:51:12;;;;;;;8.70;6.43;;;29.20;60.10;;;;;;5057008;28;20466;-90
2021/07/23 11:53:43;;;;;;;9.55;6.32;;;29.40;59.50;;;;;;5070804;28;20041;-91
2021/07/23 11:56:09;;;;;;;8.45;6.20;;;29.50;60.60;;;;;;5063642;28;20409;-90
2021/07/23 11:58:34;;;;;;;9.95;6.13;;;29.70;61.40;;;;;;5056351;28;20219;-89
2021/07/23 12:01:00;;;;;;;10.77;6.60;;;29.60;60.60;;;;;;5056778;28;20080;-89
2021/07/23 12:03:32;;;;;;;11.63;6.18;;;29.60;59.50;;;;;;5056355;28;20454;-90
2021/07/23 12:06:09;;;;;;;9.82;6.60;;;29.60;58.90;;;;;;5056418;28;20435;-89
2021/07/23 12:08:43;;;;;;;9.50;6.40;;;29.50;61.00;;;;;;5056407;28;20033;-90
2021/07/23 12:11:29;;;;;;;;;;;;;;;;;;;;;
2021/07/23 12:13:56;;;;;;;7.32;5.45;;;29.50;58.50;;;;;;5049740;28;20421;-90
2021/07/23 12:16:24;;;;;;;9.38;5.78;;;29.50;58.20;;;;;;5062473;28;20088;-90
2021/07/23 12:19:01;;;;;;;6.88;5.30;;;29.50;56.30;;;;;;5056853;28;20033;-90
2021/07/23 12:21:27;;;;;;;8.82;5.72;;;29.60;57.30;;;;;;5056912;28;20127;-90
2021/07/23 12:24:06;;;;;;;10.70;6.28;;;29.70;56.70;;;;;;5060125;28;20042;-91
2021/07/23 12:26:39;;;;;;;7.20;5.03;;;29.70;57.00;;;;;;5071670;28;20037;-90
2021/07/23 12:29:14;;;;;;;8.52;5.93;;;29.80;58.20;;;;;;5070040;28;20427;-91
2021/07/23 12:31:40;;;;;;;7.18;4.63;;;29.90;62.60;;;;;;5060240;28;20297;-89
2021/07/23 12:34:23;;;;;;;7.25;5.53;;;30.10;57.70;;;;;;5058371;28;20044;-89
2021/07/23 12:36:52;;;;;;;6.30;4.50;;;30.30;54.50;;;;;;5040722;28;20045;-91
2021/07/23 12:39:22;;;;;;;7.38;4.85;;;30.40;54.80;;;;;;5056319;28;20099;-89
2021/07/23 12:41:50;;;;;;;6.75;4.72;;;30.40;55.60;;;;;;5055999;28;20340;-90
2021/07/23 12:44:17;;;;;;;10.80;5.65;;;30.40;55.70;;;;;;5058205;28;20045;-90
2021/07/23 12:46:48;;;;;;;7.53;5.32;;;30.40;55.50;;;;;;5056897;28;20037;-89
2021/07/23 12:49:18;;;;;;;7.75;5.97;;;30.50;57.30;;;;;;5057568;28;20116;-90
2021/07/23 12:52:07;;;;;;;7.57;5.43;;;30.50;53.60;;;;;;5058406;28;20049;-92
2021/07/23 12:54:42;;;;;;;6.55;5.13;;;30.50;55.60;;;;;;5039982;28;20034;-91
2021/07/23 12:57:11;;;;;;;11.00;5.60;;;30.50;53.60;;;;;;5055938;28;20128;-89
2021/07/23 12:59:37;;;;;;;7.55;5.35;;;30.50;53.40;;;;;;5055535;28;20041;-89
2021/07/23 13:02:03;;;;;;;8.70;6.22;;;30.60;54.90;;;;;;5055219;28;20051;-90
2021/07/23 13:04:28;;;;;;;7.00;5.55;;;30.70;56.40;;;;;;5055015;28;20084;-89
2021/07/23 13:06:54;;;;;;;6.03;5.40;;;30.80;55.70;;;;;;5055271;28;20033;-90
2021/07/23 13:09:19;;;;;;;7.10;5.68;;;31.00;54.90;;;;;;5055352;28;20068;-89
2021/07/23 13:11:45;;;;;;;7.25;5.53;;;31.10;55.20;;;;;;5055122;28;20052;-89
2021/07/23 13:14:11;;;;;;;10.23;5.47;;;31.20;55.90;;;;;;5055485;28;20119;-88
2021/07/23 13:16:36;;;;;;;12.20;5.43;;;31.30;57.10;;;;;;5038511;28;20069;-87
2021/07/23 13:19:02;;;;;;;8.73;5.75;;;31.30;54.60;;;;;;5038371;28;20061;-88
2021/07/23 13:21:27;;;;;;;7.57;5.78;;;31.30;55.70;;;;;;5054407;28;20061;-90
2021/07/23 13:23:53;;;;;;;9.00;5.97;;;31.20;54.30;;;;;;5055897;28;20415;-90
2021/07/23 13:26:40;;;;;;;8.13;5.90;;;31.10;54.40;;;;;;5064732;28;20037;-91
2021/07/23 13:29:08;;;;;;;9.45;6.03;;;31.00;55.10;;;;;;5059239;28;20045;-90
2021/07/23 13:31:34;;;;;;;7.32;5.30;;;31.00;55.30;;;;;;5055411;28;20093;-89
2021/07/23 13:33:59;;;;;;;15.48;5.55;;;30.80;55.00;;;;;;5055211;28;20171;-89
2021/07/23 13:36:30;;;;;;;6.95;5.07;;;30.70;54.10;;;;;;5054815;28;20136;-90
2021/07/23 13:39:08;;;;;;;6.22;5.20;;;30.60;55.80;;;;;;5054902;28;20034;-89
2021/07/23 13:41:40;;;;;;;8.18;5.43;;;30.50;55.10;;;;;;5054876;28;20179;-90
2021/07/23 13:44:11;;;;;;;7.80;5.90;;;30.30;54.90;;;;;;5054600;28;20419;-90
2021/07/23 13:46:42;;;;;;;8.38;5.43;;;30.20;57.00;;;;;;5054616;28;20282;-89
2021/07/23 13:49:08;;;;;;;7.70;5.95;;;30.20;55.60;;;;;;5055117;28;20692;-91
2021/07/23 13:51:37;;;;;;;6.68;5.18;;;30.30;57.90;;;;;;5054484;28;20048;-90
2021/07/23 13:54:02;;;;;;;8.90;6.07;;;30.40;57.70;;;;;;5053936;28;20045;-89
2021/07/23 13:56:37;;;;;;;6.88;5.10;;;30.50;54.50;;;;;;5054981;28;20136;-90
2021/07/23 13:59:04;;;;;;;6.07;4.95;;;30.70;54.10;;;;;;5060964;28;20033;-90
2021/07/23 14:01:30;;;;;;;7.95;5.55;;;30.80;54.10;;;;;;5064523;28;20048;-89
2021/07/23 14:03:56;;;;;;;9.15;5.90;;;30.70;55.10;;;;;;5056460;28;20041;-89
2021/07/23 14:06:22;;;;;;;8.07;5.72;;;30.70;55.30;;;;;;5067101;28;20045;-90
2021/07/23 14:08:53;;;;;;;6.70;5.05;;;30.70;55.10;;;;;;5069045;28;20057;-92
2021/07/23 14:12:14;;;;;;;8.27;5.18;;;30.70;55.30;;;;;;5056325;28;20071;-92
2021/07/23 14:14:40;;;;;;;6.07;4.90;;;30.50;56.20;;;;;;5038128;28;20060;-89
2021/07/23 14:17:05;;;;;;;8.07;5.00;;;30.50;55.40;;;;;;5054521;28;20068;-89
2021/07/23 14:19:31;;;;;;;8.13;5.22;;;30.50;57.20;;;;;;5054782;28;20037;-91
2021/07/23 14:21:56;;;;;;;6.78;4.72;;;30.60;55.20;;;;;;5054313;28;20052;-89
2021/07/23 14:24:22;;;;;;;15.20;5.75;;;30.70;57.30;;;;;;5054464;28;20468;-90
2021/07/23 14:26:49;;;;;;;7.15;5.10;;;30.70;53.20;;;;;;5054827;28;20080;-89
2021/07/23 14:29:15;;;;;;;8.93;5.97;;;30.70;55.40;;;;;;5055098;28;20374;-89
2021/07/23 14:31:43;;;;;;;8.25;5.22;;;30.70;54.20;;;;;;5055198;28;20029;-91
2021/07/23 14:34:08;;;;;;;9.52;5.63;;;30.70;53.40;;;;;;5063984;28;20037;-91
2021/07/23 14:36:40;;;;;;;7.63;5.63;;;30.70;52.90;;;;;;5068835;28;20045;-91
2021/07/23 14:39:05;;;;;;;8.30;5.77;;;30.70;54.10;;;;;;5038305;28;20093;-89
2021/07/23 14:41:33;;;;;;;7.53;5.28;;;30.70;54.70;;;;;;5054434;28;20259;-89
2021/07/23 14:44:02;;;;;;;8.07;5.20;;;30.60;54.60;;;;;;5053312;28;20041;-90
2021/07/23 14:46:31;;;;;;;6.95;5.68;;;30.50;55.40;;;;;;5054827;28;20041;-90
2021/07/23 14:48:57;;;;;;;7.47;5.38;;;30.50;54.40;;;;;;5054204;28;20115;-91
2021/07/23 14:51:25;;;;;;;6.35;4.65;;;30.40;55.70;;;;;;5054425;28;20045;-91
2021/07/23 14:53:53;;;;;;;9.85;5.38;;;30.40;54.00;;;;;;5054777;28;20037;-91
2021/07/23 14:56:19;;;;;;;7.65;5.35;;;30.30;53.60;;;;;;5054581;28;20083;-90
2021/07/23 14:58:48;;;;;;;5.75;4.72;;;30.30;53.50;;;;;;5054356;28;20037;-91
2021/07/23 15:01:13;;;;;;;6.32;5.40;;;30.30;54.20;;;;;;5054251;28;20112;-89
2021/07/23 15:03:39;;;;;;;8.45;5.55;;;30.30;53.80;;;;;;5054539;28;20068;-90
2021/07/23 15:06:07;;;;;;;7.80;5.78;;;30.20;54.40;;;;;;5059865;28;20037;-90
2021/07/23 15:08:35;;;;;;;6.93;5.18;;;30.20;55.00;;;;;;5065034;28;20033;-91
2021/07/23 15:11:03;;;;;;;6.97;5.30;;;30.10;54.40;;;;;;5060680;28;20044;-90
2021/07/23 15:13:37;;;;;;;7.80;5.45;;;30.10;56.40;;;;;;5058509;28;20041;-90
2021/07/23 15:16:32;;;;;;;6.47;5.03;;;30.20;57.10;;;;;;5059227;28;20065;-92
2021/07/23 15:18:58;;;;;;;6.35;5.18;;;30.40;54.50;;;;;;5063120;28;20044;-90
2021/07/23 15:21:23;;;;;;;6.72;4.85;;;30.50;54.90;;;;;;5070234;28;20045;-90
2021/07/23 15:23:49;;;;;;;7.85;5.32;;;30.70;54.90;;;;;;5066505;28;20049;-89
2021/07/23 15:26:15;;;;;;;7.15;5.15;;;30.70;53.00;;;;;;5058389;28;20037;-89
2021/07/23 15:28:41;;;;;;;39.45;27.10;;;30.60;53.10;;;;;;5057012;28;20128;-89
2021/07/23 15:31:08;;;;;;;8.25;5.20;;;30.60;56.30;;;;;;5040334;28;20073;-89
2021/07/23 15:33:37;;;;;;;9.70;5.00;;;30.50;54.60;;;;;;5056771;28;20045;-89
2021/07/23 15:36:08;;;;;;;6.30;5.03;;;30.50;54.10;;;;;;5057887;28;20037;-90
2021/07/23 15:38:34;;;;;;;8.63;5.10;;;30.50;53.20;;;;;;5058141;28;20424;-90
2021/07/23 15:40:59;;;;;;;7.65;6.13;;;30.40;53.70;;;;;;5058375;28;20041;-88
2021/07/23 15:43:25;;;;;;;7.25;5.22;;;30.30;53.00;;;;;;5057073;28;20478;-89
2021/07/23 15:45:51;;;;;;;8.18;5.05;;;30.30;53.60;;;;;;5056731;28;20288;-90
2021/07/23 15:48:16;;;;;;;7.45;5.50;;;30.40;54.50;;;;;;5056842;28;20057;-89
2021/07/23 15:50:42;;;;;;;6.25;5.25;;;30.40;53.80;;;;;;5056147;28;20120;-88
2021/07/23 15:53:07;;;;;;;10.60;5.57;;;30.50;53.50;;;;;;5056898;28;20052;-91
2021/07/23 15:55:33;;;;;;;8.32;5.20;;;30.50;55.10;;;;;;5057312;28;20041;-90
2021/07/23 15:57:59;;;;;;;6.65;4.93;;;30.60;53.80;;;;;;5062379;28;20040;-90
2021/07/23 16:00:24;;;;;;;8.23;5.13;;;30.60;54.10;;;;;;5068549;28;20293;-90
2021/07/23 16:02:54;;;;;;;7.15;4.95;;;30.50;54.60;;;;;;5061373;28;20033;-89
2021/07/23 16:05:20;;;;;;;8.30;4.97;;;30.50;54.50;;;;;;5042547;28;20116;-89
2021/07/23 16:07:46;;;;;;;7.07;5.25;;;30.30;54.20;;;;;;5057448;28;20127;-90
2021/07/23 16:10:12;;;;;;;8.60;5.47;;;30.20;56.10;;;;;;5057205;28;20037;-90
2021/07/23 16:12:38;;;;;;;6.47;5.10;;;30.20;56.50;;;;;;5057370;28;20313;-89
2021/07/23 16:15:04;;;;;;;7.38;4.78;;;30.10;54.60;;;;;;5071672;28;20033;-89
2021/07/23 16:17:29;;;;;;;6.75;5.20;;;30.10;55.50;;;;;;5056723;28;20056;-89
2021/07/23 16:19:55;;;;;;;10.48;5.32;;;30.00;58.20;;;;;;5055816;28;20405;-89
2021/07/23 16:22:21;;;;;;;8.18;5.30;;;30.00;57.30;;;;;;5056598;28;20041;-90
2021/07/23 16:24:50;;;;;;;9.10;4.85;;;29.90;56.10;;;;;;5056321;28;20353;-89
2021/07/23 16:27:16;;;;;;;5.93;4.93;;;29.80;56.40;;;;;;5040235;28;20034;-90
2021/07/23 16:29:41;;;;;;;5.47;4.63;;;29.70;57.70;;;;;;5056050;28;20040;-89